Home   Weather   Tempelhof   Past weeks
Flag for Germany

Past Weather in Tempelhof, Berlin, Germany — April 2020

Currently: 66 °F. Scattered clouds. (Weather station: Berlin-Schoenefeld, Germany). See more current weather

April 2020 Weather in Tempelhof — Graph

°F

High & Low Weather Summary for April 2020

 TemperatureHumidityPressure
High75 °F (Apr 28, 2:20 pm)100% (Apr 29, 9:20 pm)30.48 "Hg (Apr 29, 9:20 pm)
Low25 °F (Apr 1, 5:20 am)23% (Apr 6, 2:50 pm)29.59 "Hg (Apr 28, 4:50 pm)
Average51 °F54%30.07 "Hg
* Reported Apr 1 12:20 am — Apr 30 11:50 pm, Tempelhof. Weather by CustomWeather, © 2022

Note: Actual official high and low records may vary slightly from our data, if they occured in-between our weather recording intervals... More about our weather records

Tempelhof Weather History for April 1, 2020

Scroll right to see more
 ConditionsComfort  
Time TempWeatherWind HumidityBarometerVisibility
12:20 am
Wed, Apr 1
28 °FClear.7 mph69%30.33 "Hg10 mi
12:50 am28 °FClear.6 mph69%30.30 "Hg10 mi
1:20 am27 °FClear.7 mph69%30.30 "Hg10 mi
1:50 am28 °FClear.5 mph64%30.30 "Hg10 mi
2:20 am27 °FClear.8 mph69%30.27 "Hg10 mi
2:50 am27 °FClear.8 mph69%30.27 "Hg10 mi
3:20 am27 °FClear.7 mph69%30.24 "Hg10 mi
3:50 am27 °FClear.6 mph69%30.24 "Hg10 mi
4:20 am27 °FClear.6 mph69%30.24 "Hg10 mi
4:50 am27 °FClear.7 mph69%30.24 "Hg10 mi
5:20 am25 °FClear.6 mph74%30.24 "Hg10 mi
5:50 am25 °FClear.8 mph74%30.21 "Hg10 mi
6:20 am25 °FClear.8 mph74%30.21 "Hg10 mi
6:50 am25 °FSunny.7 mph74%30.21 "Hg10 mi
7:20 am27 °FSunny.7 mph74%30.21 "Hg10 mi
7:50 am30 °FSunny.8 mph64%30.21 "Hg10 mi
8:20 am32 °FSunny.9 mph60%30.21 "Hg10 mi
8:50 am34 °FSunny.10 mph60%30.18 "Hg10 mi
9:20 am36 °FSunny.12 mph56%30.18 "Hg10 mi
10:20 am41 °FSunny.14 mph49%30.18 "Hg10 mi
10:50 am43 °FSunny.14 mph42%30.15 "Hg10 mi
11:20 am43 °FPassing clouds.15 mph46%30.15 "HgN/A
11:50 am45 °FPassing clouds.14 mph42%30.15 "HgN/A
12:20 pm46 °FPassing clouds.14 mph43%30.12 "HgN/A
12:50 pm46 °FPassing clouds.15 mph40%30.12 "HgN/A
1:20 pm46 °FPassing clouds.13 mph43%30.09 "HgN/A
1:50 pm48 °FPassing clouds.14 mph40%30.09 "HgN/A
2:20 pm48 °FPassing clouds.15 mph40%30.07 "HgN/A
2:50 pm48 °FPassing clouds.15 mph40%30.07 "HgN/A
3:20 pm48 °FSunny.16 mph40%30.07 "Hg10 mi
3:50 pm48 °FPassing clouds.13 mph40%30.04 "HgN/A
4:20 pm48 °FSunny.16 mph40%30.04 "Hg10 mi
4:50 pm50 °FPassing clouds.14 mph37%30.04 "HgN/A
5:20 pm50 °FSunny.14 mph37%30.01 "Hg10 mi
5:50 pm48 °FSunny.15 mph43%30.01 "Hg10 mi
6:20 pm48 °FSunny.14 mph46%30.01 "Hg10 mi
6:50 pm46 °FSunny.13 mph53%30.01 "Hg10 mi
7:20 pm45 °FSunny.12 mph53%30.01 "Hg10 mi
7:50 pm45 °FClear.7 mph53%30.01 "Hg10 mi
8:20 pm43 °FClear.6 mph57%30.01 "Hg10 mi
8:50 pm39 °FClear.7 mph65%30.01 "Hg10 mi
9:20 pm37 °FClear.8 mph70%30.01 "Hg10 mi
9:50 pm37 °FClear.8 mph70%29.98 "Hg10 mi
10:20 pm37 °FClear.9 mph70%29.98 "Hg10 mi
10:50 pm37 °FClear.7 mph70%29.98 "Hg10 mi
11:20 pm37 °FClear.8 mph70%29.98 "Hg10 mi
11:50 pm37 °FClear.8 mph75%29.98 "Hg10 mi
Weather by CustomWeather, © 2022

See weather overview